sensor_id;sensor_type;location;lat;lon;timestamp;temperature;humidity
29917;DHT22;16786;49.466;11.068;2022-10-18T00:00:57;14.30;99.90
29917;DHT22;16786;49.466;11.068;2022-10-18T00:03:25;14.30;99.90
29917;DHT22;16786;49.466;11.068;2022-10-18T00:05:52;14.20;99.90
29917;DHT22;16786;49.466;11.068;2022-10-18T00:08:19;14.20;99.90
29917;DHT22;16786;49.466;11.068;2022-10-18T00:10:47;14.20;99.90
29917;DHT22;16786;49.466;11.068;2022-10-18T00:13:15;14.10;99.90
29917;DHT22;16786;49.466;11.068;2022-10-18T00:15:51;14.10;99.90
29917;DHT22;16786;49.466;11.068;2022-10-18T00:18:19;14.10;99.90
29917;DHT22;16786;49.466;11.068;2022-10-18T00:21:03;14.10;99.90
29917;DHT22;16786;49.466;11.068;2022-10-18T00:23:31;14.10;99.90
29917;DHT22;16786;49.466;11.068;2022-10-18T00:28:27;14.10;99.90
29917;DHT22;16786;49.466;11.068;2022-10-18T00:30:54;14.10;99.90
29917;DHT22;16786;49.466;11.068;2022-10-18T00:33:21;14.10;99.90
29917;DHT22;16786;49.466;11.068;2022-10-18T00:35:49;14.00;99.90
29917;DHT22;16786;49.466;11.068;2022-10-18T00:38:16;14.00;99.90
29917;DHT22;16786;49.466;11.068;2022-10-18T00:40:44;14.00;99.90
29917;DHT22;16786;49.466;11.068;2022-10-18T00:43:14;14.00;99.90
29917;DHT22;16786;49.466;11.068;2022-10-18T00:45:42;14.00;99.90
29917;DHT22;16786;49.466;11.068;2022-10-18T00:48:10;13.90;99.90
29917;DHT22;16786;49.466;11.068;2022-10-18T00:50:40;13.90;99.90
29917;DHT22;16786;49.466;11.068;2022-10-18T00:53:13;13.90;99.90
29917;DHT22;16786;49.466;11.068;2022-10-18T00:55:41;13.90;99.90
29917;DHT22;16786;49.466;11.068;2022-10-18T00:58:16;13.90;99.90
29917;DHT22;16786;49.466;11.068;2022-10-18T01:00:44;13.90;99.90
29917;DHT22;16786;49.466;11.068;2022-10-18T01:03:11;13.90;99.90
29917;DHT22;16786;49.466;11.068;2022-10-18T01:05:43;13.90;99.90
29917;DHT22;16786;49.466;11.068;2022-10-18T01:11:50;13.80;99.90
29917;DHT22;16786;49.466;11.068;2022-10-18T01:32:28;13.60;99.90
29917;DHT22;16786;49.466;11.068;2022-10-18T01:35:00;13.60;99.90
29917;DHT22;16786;49.466;11.068;2022-10-18T01:37:29;13.60;99.90
29917;DHT22;16786;49.466;11.068;2022-10-18T01:39:59;13.60;99.90
29917;DHT22;16786;49.466;11.068;2022-10-18T01:42:30;13.60;99.90
29917;DHT22;16786;49.466;11.068;2022-10-18T01:44:58;13.50;99.90
29917;DHT22;16786;49.466;11.068;2022-10-18T01:47:27;13.50;99.90
29917;DHT22;16786;49.466;11.068;2022-10-18T01:49:58;13.60;99.90
29917;DHT22;16786;49.466;11.068;2022-10-18T01:52:26;13.50;99.90
29917;DHT22;16786;49.466;11.068;2022-10-18T01:54:54;13.50;99.90
29917;DHT22;16786;49.466;11.068;2022-10-18T01:57:41;13.50;99.90
29917;DHT22;16786;49.466;11.068;2022-10-18T02:00:38;13.50;99.90
29917;DHT22;16786;49.466;11.068;2022-10-18T02:03:20;13.50;99.90
29917;DHT22;16786;49.466;11.068;2022-10-18T02:08:56;13.50;99.90
29917;DHT22;16786;49.466;11.068;2022-10-18T02:11:26;13.50;99.90
29917;DHT22;16786;49.466;11.068;2022-10-18T02:14:15;13.50;99.90
29917;DHT22;16786;49.466;11.068;2022-10-18T02:16:49;13.50;99.90
29917;DHT22;16786;49.466;11.068;2022-10-18T02:21:57;13.50;99.90
29917;DHT22;16786;49.466;11.068;2022-10-18T02:24:30;13.40;99.90
29917;DHT22;16786;49.466;11.068;2022-10-18T02:26:59;13.40;99.90
29917;DHT22;16786;49.466;11.068;2022-10-18T02:29:28;13.40;99.90
29917;DHT22;16786;49.466;11.068;2022-10-18T02:37:27;13.40;99.90
29917;DHT22;16786;49.466;11.068;2022-10-18T02:39:56;13.40;99.90
29917;DHT22;16786;49.466;11.068;2022-10-18T02:42:24;13.40;99.90
29917;DHT22;16786;49.466;11.068;2022-10-18T02:44:51;13.40;99.90
29917;DHT22;16786;49.466;11.068;2022-10-18T02:47:18;13.40;99.90
29917;DHT22;16786;49.466;11.068;2022-10-18T02:49:46;13.40;99.90
29917;DHT22;16786;49.466;11.068;2022-10-18T02:52:13;13.40;99.90
29917;DHT22;16786;49.466;11.068;2022-10-18T02:54:40;13.40;99.90
29917;DHT22;16786;49.466;11.068;2022-10-18T02:57:07;13.40;99.90
29917;DHT22;16786;49.466;11.068;2022-10-18T02:59:35;13.30;99.90
29917;DHT22;16786;49.466;11.068;2022-10-18T03:02:02;13.30;99.90
29917;DHT22;16786;49.466;11.068;2022-10-18T03:04:29;13.30;99.90
29917;DHT22;16786;49.466;11.068;2022-10-18T03:06:57;13.30;99.90
29917;DHT22;16786;49.466;11.068;2022-10-18T03:09:24;13.30;99.90
29917;DHT22;16786;49.466;11.068;2022-10-18T03:11:51;13.30;99.90
29917;DHT22;16786;49.466;11.068;2022-10-18T03:14:18;13.30;99.90
29917;DHT22;16786;49.466;11.068;2022-10-18T03:16:46;13.30;99.90
29917;DHT22;16786;49.466;11.068;2022-10-18T03:19:13;13.30;99.90
29917;DHT22;16786;49.466;11.068;2022-10-18T03:21:40;13.30;99.90
29917;DHT22;16786;49.466;11.068;2022-10-18T03:24:08;13.30;99.90
29917;DHT22;16786;49.466;11.068;2022-10-18T03:26:35;13.30;99.90
29917;DHT22;16786;49.466;11.068;2022-10-18T03:29:03;13.30;99.90
29917;DHT22;16786;49.466;11.068;2022-10-18T03:31:31;13.30;99.90
29917;DHT22;16786;49.466;11.068;2022-10-18T03:33:58;13.30;99.90
29917;DHT22;16786;49.466;11.068;2022-10-18T03:36:25;13.30;99.90
29917;DHT22;16786;49.466;11.068;2022-10-18T03:38:53;13.30;99.90
29917;DHT22;16786;49.466;11.068;2022-10-18T03:41:20;13.30;99.90
29917;DHT22;16786;49.466;11.068;2022-10-18T03:43:47;13.30;99.90
29917;DHT22;16786;49.466;11.068;2022-10-18T03:46:14;13.30;99.90
29917;DHT22;16786;49.466;11.068;2022-10-18T03:48:42;13.30;99.90
29917;DHT22;16786;49.466;11.068;2022-10-18T03:51:09;13.30;99.90
29917;DHT22;16786;49.466;11.068;2022-10-18T03:53:36;13.30;99.90
29917;DHT22;16786;49.466;11.068;2022-10-18T03:56:04;13.30;99.90
29917;DHT22;16786;49.466;11.068;2022-10-18T03:58:31;13.30;99.90
29917;DHT22;16786;49.466;11.068;2022-10-18T04:00:59;13.30;99.90
29917;DHT22;16786;49.466;11.068;2022-10-18T04:03:27;13.30;99.90
29917;DHT22;16786;49.466;11.068;2022-10-18T04:05:54;13.30;99.90
29917;DHT22;16786;49.466;11.068;2022-10-18T04:08:21;13.30;99.90
29917;DHT22;16786;49.466;11.068;2022-10-18T04:10:49;13.30;99.90
29917;DHT22;16786;49.466;11.068;2022-10-18T04:13:17;13.40;99.90
29917;DHT22;16786;49.466;11.068;2022-10-18T04:15:44;13.40;99.90
29917;DHT22;16786;49.466;11.068;2022-10-18T04:18:12;13.40;99.90
29917;DHT22;16786;49.466;11.068;2022-10-18T04:20:39;13.40;99.90
29917;DHT22;16786;49.466;11.068;2022-10-18T04:23:06;13.50;99.90
29917;DHT22;16786;49.466;11.068;2022-10-18T04:25:33;13.50;99.90
29917;DHT22;16786;49.466;11.068;2022-10-18T04:28:01;13.50;99.90
29917;DHT22;16786;49.466;11.068;2022-10-18T04:30:30;13.50;99.90
29917;DHT22;16786;49.466;11.068;2022-10-18T04:32:57;13.50;99.90
29917;DHT22;16786;49.466;11.068;2022-10-18T04:35:25;13.50;99.90
29917;DHT22;16786;49.466;11.068;2022-10-18T04:37:54;13.60;99.90
29917;DHT22;16786;49.466;11.068;2022-10-18T04:40:21;13.60;99.90
29917;DHT22;16786;49.466;11.068;2022-10-18T04:42:48;13.60;99.90
29917;DHT22;16786;49.466;11.068;2022-10-18T04:45:16;13.60;99.90
29917;DHT22;16786;49.466;11.068;2022-10-18T04:47:43;13.60;99.90
29917;DHT22;16786;49.466;11.068;2022-10-18T04:50:10;13.60;99.90
29917;DHT22;16786;49.466;11.068;2022-10-18T04:52:37;13.60;99.90
29917;DHT22;16786;49.466;11.068;2022-10-18T04:55:05;13.70;99.90
29917;DHT22;16786;49.466;11.068;2022-10-18T04:57:33;13.70;99.90
29917;DHT22;16786;49.466;11.068;2022-10-18T05:00:00;13.70;99.90
29917;DHT22;16786;49.466;11.068;2022-10-18T05:02:28;13.70;99.90
29917;DHT22;16786;49.466;11.068;2022-10-18T05:04:55;13.70;99.90
29917;DHT22;16786;49.466;11.068;2022-10-18T05:07:23;13.70;99.90
29917;DHT22;16786;49.466;11.068;2022-10-18T05:09:50;13.70;99.90
29917;DHT22;16786;49.466;11.068;2022-10-18T05:12:17;13.70;99.90
29917;DHT22;16786;49.466;11.068;2022-10-18T05:14:45;13.70;99.90
29917;DHT22;16786;49.466;11.068;2022-10-18T05:17:12;13.80;99.90
29917;DHT22;16786;49.466;11.068;2022-10-18T05:19:40;13.70;99.90
29917;DHT22;16786;49.466;11.068;2022-10-18T05:22:07;13.70;99.90
29917;DHT22;16786;49.466;11.068;2022-10-18T05:24:34;13.70;99.90
29917;DHT22;16786;49.466;11.068;2022-10-18T05:27:02;13.80;99.90
29917;DHT22;16786;49.466;11.068;2022-10-18T05:29:29;13.70;99.90
29917;DHT22;16786;49.466;11.068;2022-10-18T05:31:56;13.80;99.90
29917;DHT22;16786;49.466;11.068;2022-10-18T05:34:23;13.80;99.90
29917;DHT22;16786;49.466;11.068;2022-10-18T05:36:53;13.70;99.90
29917;DHT22;16786;49.466;11.068;2022-10-18T05:39:20;13.70;99.90
29917;DHT22;16786;49.466;11.068;2022-10-18T05:41:47;13.80;99.90
29917;DHT22;16786;49.466;11.068;2022-10-18T05:44:15;13.70;99.90
29917;DHT22;16786;49.466;11.068;2022-10-18T05:46:42;13.80;99.90
29917;DHT22;16786;49.466;11.068;2022-10-18T05:49:11;13.80;99.90
29917;DHT22;16786;49.466;11.068;2022-10-18T05:51:38;13.80;99.90
29917;DHT22;16786;49.466;11.068;2022-10-18T05:54:06;13.80;99.90
29917;DHT22;16786;49.466;11.068;2022-10-18T05:56:33;13.80;99.90
29917;DHT22;16786;49.466;11.068;2022-10-18T05:59:00;13.80;99.90
29917;DHT22;16786;49.466;11.068;2022-10-18T06:01:30;13.80;99.90
29917;DHT22;16786;49.466;11.068;2022-10-18T06:03:58;13.80;99.90
29917;DHT22;16786;49.466;11.068;2022-10-18T06:06:25;13.80;99.90
29917;DHT22;16786;49.466;11.068;2022-10-18T06:08:52;13.90;99.90
29917;DHT22;16786;49.466;11.068;2022-10-18T06:11:20;13.90;99.90
29917;DHT22;16786;49.466;11.068;2022-10-18T06:13:49;13.90;99.90
29917;DHT22;16786;49.466;11.068;2022-10-18T06:16:19;14.00;99.90
29917;DHT22;16786;49.466;11.068;2022-10-18T06:18:48;14.10;99.90
29917;DHT22;16786;49.466;11.068;2022-10-18T06:21:16;14.20;99.90
29917;DHT22;16786;49.466;11.068;2022-10-18T06:23:49;14.20;99.90
29917;DHT22;16786;49.466;11.068;2022-10-18T06:26:19;14.20;99.90
29917;DHT22;16786;49.466;11.068;2022-10-18T06:28:46;14.30;99.90
29917;DHT22;16786;49.466;11.068;2022-10-18T06:31:14;14.30;99.90
29917;DHT22;16786;49.466;11.068;2022-10-18T06:33:41;14.40;99.90
29917;DHT22;16786;49.466;11.068;2022-10-18T06:36:14;14.40;99.90
29917;DHT22;16786;49.466;11.068;2022-10-18T06:38:42;14.50;99.90
29917;DHT22;16786;49.466;11.068;2022-10-18T06:41:09;14.50;99.90
29917;DHT22;16786;49.466;11.068;2022-10-18T06:43:37;14.50;99.90
29917;DHT22;16786;49.466;11.068;2022-10-18T06:46:05;14.60;99.90
29917;DHT22;16786;49.466;11.068;2022-10-18T06:48:35;14.60;99.90
29917;DHT22;16786;49.466;11.068;2022-10-18T06:51:05;14.70;99.90
29917;DHT22;16786;49.466;11.068;2022-10-18T06:53:36;14.70;99.90
29917;DHT22;16786;49.466;11.068;2022-10-18T06:56:14;14.80;99.90
29917;DHT22;16786;49.466;11.068;2022-10-18T06:58:42;14.80;99.90
29917;DHT22;16786;49.466;11.068;2022-10-18T07:01:11;14.80;99.90
29917;DHT22;16786;49.466;11.068;2022-10-18T07:03:39;14.90;99.90
29917;DHT22;16786;49.466;11.068;2022-10-18T07:06:08;15.00;99.90
29917;DHT22;16786;49.466;11.068;2022-10-18T07:08:37;15.00;99.90
29917;DHT22;16786;49.466;11.068;2022-10-18T07:11:05;15.10;99.90
29917;DHT22;16786;49.466;11.068;2022-10-18T07:13:33;15.10;99.90
29917;DHT22;16786;49.466;11.068;2022-10-18T07:16:06;15.20;99.90
29917;DHT22;16786;49.466;11.068;2022-10-18T07:18:42;15.30;99.90
29917;DHT22;16786;49.466;11.068;2022-10-18T07:21:14;15.30;99.90
29917;DHT22;16786;49.466;11.068;2022-10-18T07:23:43;15.40;99.90
29917;DHT22;16786;49.466;11.068;2022-10-18T07:26:26;15.40;99.90
29917;DHT22;16786;49.466;11.068;2022-10-18T07:28:58;15.50;99.90
29917;DHT22;16786;49.466;11.068;2022-10-18T07:31:27;15.50;99.90
29917;DHT22;16786;49.466;11.068;2022-10-18T07:33:55;15.50;99.90
29917;DHT22;16786;49.466;11.068;2022-10-18T07:36:22;15.60;99.90
29917;DHT22;16786;49.466;11.068;2022-10-18T07:38:51;15.60;99.90
29917;DHT22;16786;49.466;11.068;2022-10-18T07:41:19;15.70;99.90
29917;DHT22;16786;49.466;11.068;2022-10-18T07:43:48;15.80;99.90
29917;DHT22;16786;49.466;11.068;2022-10-18T07:46:18;15.90;99.90
29917;DHT22;16786;49.466;11.068;2022-10-18T07:48:46;15.90;99.90
29917;DHT22;16786;49.466;11.068;2022-10-18T07:51:13;15.90;99.90
29917;DHT22;16786;49.466;11.068;2022-10-18T07:53:41;16.00;99.90
29917;DHT22;16786;49.466;11.068;2022-10-18T07:56:10;16.10;99.90
29917;DHT22;16786;49.466;11.068;2022-10-18T07:58:50;16.20;99.90
29917;DHT22;16786;49.466;11.068;2022-10-18T08:01:20;16.30;99.90
29917;DHT22;16786;49.466;11.068;2022-10-18T08:03:49;16.40;99.90
29917;DHT22;16786;49.466;11.068;2022-10-18T08:06:18;16.50;99.90
29917;DHT22;16786;49.466;11.068;2022-10-18T08:08:47;16.50;99.90
29917;DHT22;16786;49.466;11.068;2022-10-18T08:11:20;16.60;99.90
29917;DHT22;16786;49.466;11.068;2022-10-18T08:13:48;16.50;99.90
29917;DHT22;16786;49.466;11.068;2022-10-18T08:16:21;16.50;99.90
29917;DHT22;16786;49.466;11.068;2022-10-18T08:18:50;16.60;99.90
29917;DHT22;16786;49.466;11.068;2022-10-18T08:21:18;16.80;99.90
29917;DHT22;16786;49.466;11.068;2022-10-18T08:23:46;16.90;99.90
29917;DHT22;16786;49.466;11.068;2022-10-18T08:26:17;17.10;99.90
29917;DHT22;16786;49.466;11.068;2022-10-18T08:28:45;17.10;99.90
29917;DHT22;16786;49.466;11.068;2022-10-18T08:31:24;17.20;99.90
29917;DHT22;16786;49.466;11.068;2022-10-18T08:33:54;17.30;99.90
29917;DHT22;16786;49.466;11.068;2022-10-18T08:36:22;17.40;99.90
29917;DHT22;16786;49.466;11.068;2022-10-18T08:38:50;17.50;99.90
29917;DHT22;16786;49.466;11.068;2022-10-18T08:41:43;17.60;99.90
29917;DHT22;16786;49.466;11.068;2022-10-18T08:44:27;17.70;99.90
29917;DHT22;16786;49.466;11.068;2022-10-18T08:47:06;17.80;99.90
29917;DHT22;16786;49.466;11.068;2022-10-18T08:49:43;17.90;99.90
29917;DHT22;16786;49.466;11.068;2022-10-18T08:55:12;18.10;99.90
29917;DHT22;16786;49.466;11.068;2022-10-18T08:57:42;18.30;99.90
29917;DHT22;16786;49.466;11.068;2022-10-18T09:00:30;18.50;99.90
29917;DHT22;16786;49.466;11.068;2022-10-18T09:05:53;19.00;99.90
29917;DHT22;16786;49.466;11.068;2022-10-18T09:14:46;19.40;99.90
29917;DHT22;16786;49.466;11.068;2022-10-18T09:17:26;19.40;99.90
29917;DHT22;16786;49.466;11.068;2022-10-18T09:25:59;20.00;99.90
29917;DHT22;16786;49.466;11.068;2022-10-18T09:28:35;20.20;99.90
29917;DHT22;16786;49.466;11.068;2022-10-18T09:34:01;20.60;99.90
29917;DHT22;16786;49.466;11.068;2022-10-18T09:36:32;20.80;99.90
29917;DHT22;16786;49.466;11.068;2022-10-18T09:39:14;21.00;99.90
29917;DHT22;16786;49.466;11.068;2022-10-18T09:44:33;21.10;99.90
29917;DHT22;16786;49.466;11.068;2022-10-18T09:49:46;21.20;99.90
29917;DHT22;16786;49.466;11.068;2022-10-18T09:52:33;21.30;99.90
29917;DHT22;16786;49.466;11.068;2022-10-18T09:55:13;21.50;99.90
29917;DHT22;16786;49.466;11.068;2022-10-18T09:57:45;21.50;99.90
29917;DHT22;16786;49.466;11.068;2022-10-18T10:00:20;21.90;99.90
29917;DHT22;16786;49.466;11.068;2022-10-18T10:02:48;22.20;99.90
29917;DHT22;16786;49.466;11.068;2022-10-18T10:05:16;22.40;99.90
29917;DHT22;16786;49.466;11.068;2022-10-18T10:07:47;22.50;99.90
29917;DHT22;16786;49.466;11.068;2022-10-18T10:10:29;22.80;99.90
29917;DHT22;16786;49.466;11.068;2022-10-18T10:13:15;23.00;99.90
29917;DHT22;16786;49.466;11.068;2022-10-18T10:15:55;22.70;99.90
29917;DHT22;16786;49.466;11.068;2022-10-18T10:18:33;22.60;99.90
29917;DHT22;16786;49.466;11.068;2022-10-18T10:21:05;22.60;99.90
29917;DHT22;16786;49.466;11.068;2022-10-18T10:23:43;22.70;99.90
29917;DHT22;16786;49.466;11.068;2022-10-18T10:26:24;22.50;99.90
29917;DHT22;16786;49.466;11.068;2022-10-18T10:28:54;22.30;99.90
29917;DHT22;16786;49.466;11.068;2022-10-18T10:31:28;22.50;99.90
29917;DHT22;16786;49.466;11.068;2022-10-18T10:36:27;22.30;99.90
29917;DHT22;16786;49.466;11.068;2022-10-18T10:39:25;22.10;99.90
29917;DHT22;16786;49.466;11.068;2022-10-18T10:41:57;21.80;99.90
29917;DHT22;16786;49.466;11.068;2022-10-18T10:44:29;21.60;99.90
29917;DHT22;16786;49.466;11.068;2022-10-18T10:46:58;21.40;99.90
29917;DHT22;16786;49.466;11.068;2022-10-18T10:49:42;21.30;99.90
29917;DHT22;16786;49.466;11.068;2022-10-18T10:52:23;20.80;99.90
29917;DHT22;16786;49.466;11.068;2022-10-18T10:54:55;20.40;99.90
29917;DHT22;16786;49.466;11.068;2022-10-18T10:57:48;20.10;99.90
29917;DHT22;16786;49.466;11.068;2022-10-18T11:00:44;20.00;99.90
29917;DHT22;16786;49.466;11.068;2022-10-18T11:03:19;19.80;99.90
29917;DHT22;16786;49.466;11.068;2022-10-18T11:05:56;19.70;99.90
29917;DHT22;16786;49.466;11.068;2022-10-18T11:08:37;19.60;99.90
29917;DHT22;16786;49.466;11.068;2022-10-18T11:11:20;19.60;99.90
29917;DHT22;16786;49.466;11.068;2022-10-18T11:13:53;19.50;99.90
29917;DHT22;16786;49.466;11.068;2022-10-18T11:16:52;19.30;99.90
29917;DHT22;16786;49.466;11.068;2022-10-18T11:22:21;19.40;99.90
29917;DHT22;16786;49.466;11.068;2022-10-18T11:24:50;19.30;99.90
29917;DHT22;16786;49.466;11.068;2022-10-18T11:27:30;19.30;99.90
29917;DHT22;16786;49.466;11.068;2022-10-18T11:32:47;19.00;99.90
29917;DHT22;16786;49.466;11.068;2022-10-18T11:35:22;18.90;99.90
29917;DHT22;16786;49.466;11.068;2022-10-18T11:48:56;18.50;99.90
29917;DHT22;16786;49.466;11.068;2022-10-18T12:05:35;18.60;99.90
29917;DHT22;16786;49.466;11.068;2022-10-18T12:11:40;18.60;99.90
29917;DHT22;16786;49.466;11.068;2022-10-18T12:14:35;18.60;99.90
29917;DHT22;16786;49.466;11.068;2022-10-18T12:17:07;18.50;99.90
29917;DHT22;16786;49.466;11.068;2022-10-18T12:20:04;18.60;99.90
29917;DHT22;16786;49.466;11.068;2022-10-18T12:22:46;18.50;99.90
29917;DHT22;16786;49.466;11.068;2022-10-18T12:25:17;18.50;99.90
29917;DHT22;16786;49.466;11.068;2022-10-18T12:30:39;19.10;99.90
29917;DHT22;16786;49.466;11.068;2022-10-18T12:33:15;19.40;99.90
29917;DHT22;16786;49.466;11.068;2022-10-18T12:39:04;19.50;99.90
29917;DHT22;16786;49.466;11.068;2022-10-18T12:41:33;19.40;99.90
29917;DHT22;16786;49.466;11.068;2022-10-18T12:46:57;19.20;99.90
29917;DHT22;16786;49.466;11.068;2022-10-18T12:49:32;19.00;99.90
29917;DHT22;16786;49.466;11.068;2022-10-18T12:52:03;19.00;99.90
29917;DHT22;16786;49.466;11.068;2022-10-18T12:54:34;18.80;99.90
29917;DHT22;16786;49.466;11.068;2022-10-18T12:57:04;18.70;99.90
29917;DHT22;16786;49.466;11.068;2022-10-18T13:15:43;18.60;99.90
29917;DHT22;16786;49.466;11.068;2022-10-18T13:21:41;18.80;99.90
29917;DHT22;16786;49.466;11.068;2022-10-18T13:24:34;18.80;99.90
29917;DHT22;16786;49.466;11.068;2022-10-18T13:30:26;18.80;99.90
29917;DHT22;16786;49.466;11.068;2022-10-18T13:41:14;18.60;99.90
29917;DHT22;16786;49.466;11.068;2022-10-18T13:52:19;18.60;99.90
29917;DHT22;16786;49.466;11.068;2022-10-18T14:06:26;18.40;99.90
29917;DHT22;16786;49.466;11.068;2022-10-18T14:09:07;18.50;99.90
29917;DHT22;16786;49.466;11.068;2022-10-18T14:12:20;18.50;99.90
29917;DHT22;16786;49.466;11.068;2022-10-18T14:15:17;18.50;99.90
29917;DHT22;16786;49.466;11.068;2022-10-18T14:17:52;18.50;99.90
29917;DHT22;16786;49.466;11.068;2022-10-18T14:20:28;18.50;99.90
29917;DHT22;16786;49.466;11.068;2022-10-18T14:23:34;18.40;99.90
29917;DHT22;16786;49.466;11.068;2022-10-18T14:26:14;18.40;99.90
29917;DHT22;16786;49.466;11.068;2022-10-18T14:28:42;18.60;99.90
29917;DHT22;16786;49.466;11.068;2022-10-18T14:31:26;18.60;99.90
29917;DHT22;16786;49.466;11.068;2022-10-18T14:33:57;18.70;99.90
29917;DHT22;16786;49.466;11.068;2022-10-18T14:36:38;18.70;99.90
29917;DHT22;16786;49.466;11.068;2022-10-18T14:39:21;18.80;99.90
29917;DHT22;16786;49.466;11.068;2022-10-18T14:41:54;19.00;99.90
29917;DHT22;16786;49.466;11.068;2022-10-18T14:44:28;19.00;99.90
29917;DHT22;16786;49.466;11.068;2022-10-18T14:47:24;18.80;99.90
29917;DHT22;16786;49.466;11.068;2022-10-18T14:49:53;18.90;99.90
29917;DHT22;16786;49.466;11.068;2022-10-18T14:52:29;19.00;99.90
29917;DHT22;16786;49.466;11.068;2022-10-18T14:55:01;19.00;99.90
29917;DHT22;16786;49.466;11.068;2022-10-18T14:57:35;19.10;99.90
29917;DHT22;16786;49.466;11.068;2022-10-18T15:00:06;19.10;99.90
29917;DHT22;16786;49.466;11.068;2022-10-18T15:02:37;19.10;99.90
29917;DHT22;16786;49.466;11.068;2022-10-18T15:07:33;19.30;99.90
29917;DHT22;16786;49.466;11.068;2022-10-18T15:10:03;19.20;99.90
29917;DHT22;16786;49.466;11.068;2022-10-18T15:12:31;19.00;99.90
29917;DHT22;16786;49.466;11.068;2022-10-18T15:15:19;19.00;99.90
29917;DHT22;16786;49.466;11.068;2022-10-18T15:17:47;18.80;99.90
29917;DHT22;16786;49.466;11.068;2022-10-18T15:20:24;18.80;99.90
29917;DHT22;16786;49.466;11.068;2022-10-18T15:22:53;18.70;99.90
29917;DHT22;16786;49.466;11.068;2022-10-18T15:25:26;18.60;99.90
29917;DHT22;16786;49.466;11.068;2022-10-18T15:27:58;18.50;99.90
29917;DHT22;16786;49.466;11.068;2022-10-18T15:30:30;18.50;99.90
29917;DHT22;16786;49.466;11.068;2022-10-18T15:33:04;18.40;99.90
29917;DHT22;16786;49.466;11.068;2022-10-18T15:35:37;18.20;99.90
29917;DHT22;16786;49.466;11.068;2022-10-18T15:38:24;18.20;99.90
29917;DHT22;16786;49.466;11.068;2022-10-18T15:40:52;18.20;99.90
29917;DHT22;16786;49.466;11.068;2022-10-18T15:45:55;18.10;99.90
29917;DHT22;16786;49.466;11.068;2022-10-18T15:48:38;18.00;99.90
29917;DHT22;16786;49.466;11.068;2022-10-18T15:51:11;18.00;99.90
29917;DHT22;16786;49.466;11.068;2022-10-18T15:56:33;17.90;99.90
29917;DHT22;16786;49.466;11.068;2022-10-18T15:59:04;17.80;99.90
29917;DHT22;16786;49.466;11.068;2022-10-18T16:01:36;17.80;99.90
29917;DHT22;16786;49.466;11.068;2022-10-18T16:04:08;17.80;99.90
29917;DHT22;16786;49.466;11.068;2022-10-18T16:06:38;17.80;99.90
29917;DHT22;16786;49.466;11.068;2022-10-18T16:09:05;17.80;99.90
29917;DHT22;16786;49.466;11.068;2022-10-18T16:11:32;17.70;99.90
29917;DHT22;16786;49.466;11.068;2022-10-18T16:14:01;17.70;99.90
29917;DHT22;16786;49.466;11.068;2022-10-18T16:16:28;17.60;99.90
29917;DHT22;16786;49.466;11.068;2022-10-18T16:18:56;17.50;99.90
29917;DHT22;16786;49.466;11.068;2022-10-18T16:21:29;17.50;99.90
29917;DHT22;16786;49.466;11.068;2022-10-18T16:23:57;17.40;99.90
29917;DHT22;16786;49.466;11.068;2022-10-18T16:26:25;17.40;99.90
29917;DHT22;16786;49.466;11.068;2022-10-18T16:28:54;17.40;99.90
29917;DHT22;16786;49.466;11.068;2022-10-18T16:31:24;17.30;99.90
29917;DHT22;16786;49.466;11.068;2022-10-18T16:33:53;17.20;99.90
29917;DHT22;16786;49.466;11.068;2022-10-18T16:36:26;17.10;99.90
29917;DHT22;16786;49.466;11.068;2022-10-18T16:38:56;17.10;99.90
29917;DHT22;16786;49.466;11.068;2022-10-18T16:41:24;17.10;99.90
29917;DHT22;16786;49.466;11.068;2022-10-18T16:43:51;17.00;99.90
29917;DHT22;16786;49.466;11.068;2022-10-18T16:46:24;17.00;99.90
29917;DHT22;16786;49.466;11.068;2022-10-18T16:48:54;16.90;99.90
29917;DHT22;16786;49.466;11.068;2022-10-18T16:51:21;16.90;99.90
29917;DHT22;16786;49.466;11.068;2022-10-18T16:53:49;16.90;99.90
29917;DHT22;16786;49.466;11.068;2022-10-18T16:56:19;16.80;99.90
29917;DHT22;16786;49.466;11.068;2022-10-18T16:58:48;16.80;99.90
29917;DHT22;16786;49.466;11.068;2022-10-18T17:01:17;16.70;99.90
29917;DHT22;16786;49.466;11.068;2022-10-18T17:03:46;16.70;99.90
29917;DHT22;16786;49.466;11.068;2022-10-18T17:06:16;16.70;99.90
29917;DHT22;16786;49.466;11.068;2022-10-18T17:08:44;16.70;99.90
29917;DHT22;16786;49.466;11.068;2022-10-18T17:11:12;16.70;99.90
29917;DHT22;16786;49.466;11.068;2022-10-18T17:13:40;16.70;99.90
29917;DHT22;16786;49.466;11.068;2022-10-18T17:16:25;16.70;99.90
29917;DHT22;16786;49.466;11.068;2022-10-18T17:18:56;16.70;99.90
29917;DHT22;16786;49.466;11.068;2022-10-18T17:21:25;16.70;99.90
29917;DHT22;16786;49.466;11.068;2022-10-18T17:23:53;16.70;99.90
29917;DHT22;16786;49.466;11.068;2022-10-18T17:26:22;16.70;99.90
29917;DHT22;16786;49.466;11.068;2022-10-18T17:29:02;16.70;99.90
29917;DHT22;16786;49.466;11.068;2022-10-18T17:31:30;16.70;99.90
29917;DHT22;16786;49.466;11.068;2022-10-18T17:33:58;16.80;99.90
29917;DHT22;16786;49.466;11.068;2022-10-18T17:36:32;16.80;99.90
29917;DHT22;16786;49.466;11.068;2022-10-18T17:38:59;16.80;99.90
29917;DHT22;16786;49.466;11.068;2022-10-18T17:41:27;16.80;99.90
29917;DHT22;16786;49.466;11.068;2022-10-18T17:43:54;16.80;99.90
29917;DHT22;16786;49.466;11.068;2022-10-18T17:46:22;16.80;99.90
29917;DHT22;16786;49.466;11.068;2022-10-18T17:48:49;16.80;99.90
29917;DHT22;16786;49.466;11.068;2022-10-18T17:51:17;16.80;99.90
29917;DHT22;16786;49.466;11.068;2022-10-18T17:53:45;16.80;99.90
29917;DHT22;16786;49.466;11.068;2022-10-18T17:56:13;17.00;99.90
29917;DHT22;16786;49.466;11.068;2022-10-18T17:58:44;16.90;99.90
29917;DHT22;16786;49.466;11.068;2022-10-18T18:01:15;16.90;99.90
29917;DHT22;16786;49.466;11.068;2022-10-18T18:03:43;16.80;99.90
29917;DHT22;16786;49.466;11.068;2022-10-18T18:06:16;16.90;99.90
29917;DHT22;16786;49.466;11.068;2022-10-18T18:08:44;16.70;99.90
29917;DHT22;16786;49.466;11.068;2022-10-18T18:11:12;16.70;99.90
29917;DHT22;16786;49.466;11.068;2022-10-18T18:13:40;16.70;99.90
29917;DHT22;16786;49.466;11.068;2022-10-18T18:16:19;16.70;99.90
29917;DHT22;16786;49.466;11.068;2022-10-18T18:18:49;16.60;99.90
29917;DHT22;16786;49.466;11.068;2022-10-18T18:21:17;16.60;99.90
29917;DHT22;16786;49.466;11.068;2022-10-18T18:23:45;16.60;99.90
29917;DHT22;16786;49.466;11.068;2022-10-18T18:26:13;16.50;99.90
29917;DHT22;16786;49.466;11.068;2022-10-18T18:28:41;16.50;99.90